createdAt,value
2023-05-16T00:01:06.060Z,100055.31
2023-05-16T00:03:51.741Z,100023.75
2023-05-16T00:06:36.285Z,100034.03
2023-05-16T00:09:20.321Z,100040.50
2023-05-16T00:12:04.973Z,99998.75
2023-05-16T00:14:48.972Z,100009.91
2023-05-16T00:17:33.122Z,100033.22
2023-05-16T00:20:19.081Z,99998.56
2023-05-16T00:23:03.496Z,99998.34
2023-05-16T00:25:47.668Z,100037.66
2023-05-16T00:28:31.678Z,100039.16
2023-05-16T00:31:15.630Z,100036.59
2023-05-16T00:33:59.632Z,100034.25
2023-05-16T00:36:45.177Z,100027.88
2023-05-16T00:39:28.966Z,100035.97
2023-05-16T00:42:13.880Z,100034.78
2023-05-16T00:44:57.640Z,100035.56
2023-05-16T00:47:41.706Z,100035.25
2023-05-16T00:50:25.866Z,100025.56
2023-05-16T00:53:12.151Z,100038.09
2023-05-16T00:55:57.698Z,100021.94
2023-05-16T00:58:41.825Z,100040.00
2023-05-16T01:01:27.743Z,100031.72
2023-05-16T01:04:12.035Z,100031.50
2023-05-16T01:06:57.204Z,100033.41
2023-05-16T01:09:42.566Z,100027.56
2023-05-16T01:12:36.446Z,100029.47
2023-05-16T01:15:25.736Z,100034.91
2023-05-16T01:18:17.481Z,100033.84
2023-05-16T01:21:05.778Z,100019.16
2023-05-16T01:23:58.232Z,100023.16
2023-05-16T01:26:44.065Z,100034.19
2023-05-16T01:29:27.892Z,100022.50
2023-05-16T01:32:11.868Z,100028.28
2023-05-16T01:34:55.722Z,100022.13
2023-05-16T01:37:46.219Z,100030.00
2023-05-16T01:40:37.783Z,100023.41
2023-05-16T01:43:32.448Z,100025.53
2023-05-16T01:46:19.910Z,100032.22
2023-05-16T01:49:16.909Z,100026.81
2023-05-16T01:52:03.464Z,100032.78
2023-05-16T01:54:54.616Z,100030.75
2023-05-16T01:57:39.834Z,100029.94
2023-05-16T02:00:25.133Z,100025.88
2023-05-16T02:03:09.004Z,100017.69
2023-05-16T02:05:53.040Z,100023.44
2023-05-16T02:08:36.827Z,100011.09
2023-05-16T02:11:21.368Z,100017.38
2023-05-16T02:14:05.305Z,100019.19
2023-05-16T02:16:51.169Z,100011.53
2023-05-16T02:19:35.163Z,100015.97
2023-05-16T02:22:18.951Z,100018.06
2023-05-16T02:25:04.449Z,100004.53
2023-05-16T02:27:49.413Z,100006.56
2023-05-16T02:30:33.161Z,100009.53
2023-05-16T02:33:18.436Z,100012.31
2023-05-16T02:36:03.667Z,100013.19
2023-05-16T02:38:47.576Z,100011.25
2023-05-16T02:41:31.884Z,100012.19
2023-05-16T02:44:16.260Z,99980.00
2023-05-16T02:47:00.135Z,100002.94
2023-05-16T02:49:45.592Z,99969.47
2023-05-16T02:52:29.388Z,100001.91
2023-05-16T02:55:21.624Z,100011.34
2023-05-16T02:58:06.388Z,100012.31
2023-05-16T03:00:50.348Z,100017.81
2023-05-16T03:03:35.451Z,100016.84
2023-05-16T03:06:20.746Z,100021.97
2023-05-16T03:09:04.746Z,100022.97
2023-05-16T03:11:48.584Z,100007.84
2023-05-16T03:14:32.430Z,100004.63
2023-05-16T03:17:16.246Z,100001.34
2023-05-16T03:20:00.219Z,100000.47
2023-05-16T03:22:48.179Z,99994.50
2023-05-16T03:25:31.988Z,99993.59
2023-05-16T03:28:16.996Z,99973.75
2023-05-16T03:31:01.886Z,99998.13
2023-05-16T03:33:46.034Z,100006.03
2023-05-16T03:36:30.321Z,100000.59
2023-05-16T03:39:15.776Z,99996.34
2023-05-16T03:41:59.586Z,99970.44
2023-05-16T03:44:43.459Z,100003.75
2023-05-16T03:47:30.567Z,100008.72
2023-05-16T03:50:14.408Z,100011.59
2023-05-16T03:52:58.187Z,100021.03
2023-05-16T03:55:43.973Z,100039.97
2023-05-16T03:58:28.326Z,100052.31
2023-05-16T04:01:12.155Z,100027.97
2023-05-16T04:03:56.017Z,100064.78
2023-05-16T04:06:39.960Z,100063.72
2023-05-16T04:09:23.755Z,100055.25
2023-05-16T04:12:09.686Z,100051.25
2023-05-16T04:14:53.379Z,100050.31
2023-05-16T04:17:37.437Z,100038.50
2023-05-16T04:20:21.475Z,100037.25
2023-05-16T04:23:05.764Z,100040.34
2023-05-16T04:25:50.760Z,100026.66
2023-05-16T04:28:36.116Z,100037.91
2023-05-16T04:31:20.033Z,100034.22
2023-05-16T04:34:03.989Z,100028.88
2023-05-16T04:36:47.786Z,100032.81
2023-05-16T04:39:31.510Z,100032.19
2023-05-16T04:42:15.323Z,100032.03
2023-05-16T04:45:00.766Z,100026.03
2023-05-16T04:47:44.669Z,100025.78
2023-05-16T04:50:28.602Z,100035.38
2023-05-16T04:53:12.518Z,100030.56
2023-05-16T04:55:56.454Z,100035.75
2023-05-16T04:58:42.719Z,100028.56
2023-05-16T05:01:28.258Z,100024.31
2023-05-16T05:04:12.377Z,100020.91
2023-05-16T05:06:56.542Z,100025.03
2023-05-16T05:09:40.769Z,100014.59
2023-05-16T05:12:25.997Z,100012.66
2023-05-16T05:15:10.299Z,100010.81
2023-05-16T05:17:55.810Z,100016.19
2023-05-16T05:20:40.046Z,100019.44
2023-05-16T05:23:23.817Z,100013.50
2023-05-16T05:26:07.617Z,100018.56
2023-05-16T05:29:03.973Z,100023.47
2023-05-16T05:31:48.787Z,100021.78
2023-05-16T05:34:34.050Z,100026.72
2023-05-16T05:37:18.002Z,100031.00
2023-05-16T05:40:02.116Z,100031.09
2023-05-16T05:42:49.346Z,100039.13
2023-05-16T05:45:33.336Z,100037.66
2023-05-16T05:48:17.414Z,100032.81
2023-05-16T05:51:02.734Z,100016.72
2023-05-16T05:53:46.783Z,100021.34
2023-05-16T05:56:30.760Z,99997.78
2023-05-16T05:59:14.585Z,100003.44
2023-05-16T06:01:58.978Z,99995.59
2023-05-16T06:04:43.516Z,99995.50
2023-05-16T06:07:28.827Z,99993.16
2023-05-16T06:10:12.768Z,100008.06
2023-05-16T06:12:56.735Z,99991.84
2023-05-16T06:15:40.681Z,99995.75
2023-05-16T06:18:24.928Z,99981.25
2023-05-16T06:21:08.923Z,99924.34
2023-05-16T06:23:54.509Z,99982.59
2023-05-16T06:26:38.552Z,99945.06
2023-05-16T06:29:22.770Z,99947.50
2023-05-16T06:32:07.644Z,99969.53
2023-05-16T06:34:51.884Z,99932.69
2023-05-16T06:37:36.152Z,99933.25
2023-05-16T06:40:21.579Z,99920.59
2023-05-16T06:43:05.478Z,99951.22
2023-05-16T06:45:49.296Z,99964.81
2023-05-16T06:48:33.164Z,99956.81
2023-05-16T06:51:17.803Z,99970.94
2023-05-16T06:54:03.945Z,99959.41
2023-05-16T06:56:49.503Z,99971.34
2023-05-16T06:59:33.298Z,99970.16
2023-05-16T07:02:17.324Z,99983.97
2023-05-16T07:05:01.310Z,99985.72
2023-05-16T07:07:47.737Z,99985.84
2023-05-16T07:10:31.767Z,99999.38
2023-05-16T07:13:17.040Z,100001.00
2023-05-16T07:16:01.149Z,100004.19
2023-05-16T07:18:45.241Z,99997.50
2023-05-16T07:21:29.372Z,100005.66
2023-05-16T07:24:13.325Z,99987.72
2023-05-16T07:26:57.203Z,99979.88
2023-05-16T07:29:42.865Z,99978.25
2023-05-16T07:32:26.845Z,99985.09
2023-05-16T07:35:11.629Z,99992.72
2023-05-16T07:37:55.607Z,99997.09
2023-05-16T07:40:39.594Z,99985.16
2023-05-16T07:43:23.422Z,99992.38
2023-05-16T07:46:08.802Z,99996.22
2023-05-16T07:48:52.856Z,100001.13
2023-05-16T07:51:36.747Z,100009.50
2023-05-16T07:54:20.764Z,100008.88
2023-05-16T07:57:05.233Z,100018.97
2023-05-16T07:59:49.109Z,100017.66
2023-05-16T08:02:34.601Z,100031.78
2023-05-16T08:05:19.290Z,100028.25
2023-05-16T08:08:03.164Z,100036.00
2023-05-16T08:10:47.384Z,100034.78
2023-05-16T08:13:31.831Z,100029.63
2023-05-16T08:16:15.734Z,100039.09
2023-05-16T08:19:01.181Z,100042.84
2023-05-16T08:21:45.185Z,100026.91
2023-05-16T08:24:29.197Z,100026.91
2023-05-16T08:27:13.256Z,100033.72
2023-05-16T08:29:57.181Z,100023.97
2023-05-16T08:32:41.319Z,100035.84
2023-05-16T08:35:27.014Z,100034.53
2023-05-16T08:38:11.033Z,100023.78
2023-05-16T08:40:54.984Z,100025.00
2023-05-16T08:43:38.820Z,100027.53
2023-05-16T08:46:24.397Z,100002.50
2023-05-16T08:49:10.518Z,100016.53
2023-05-16T08:51:59.386Z,100013.59
2023-05-16T08:54:52.676Z,100005.50
2023-05-16T08:57:42.865Z,100002.81
2023-05-16T09:00:28.124Z,100010.22
2023-05-16T09:03:12.555Z,100008.53
2023-05-16T09:05:56.663Z,100001.78
2023-05-16T09:08:43.049Z,100012.66
2023-05-16T09:11:26.973Z,99999.06
2023-05-16T09:14:10.926Z,99998.34
2023-05-16T09:17:06.033Z,99993.00
2023-05-16T09:19:52.935Z,99985.09
2023-05-16T09:22:36.931Z,99983.41
2023-05-16T09:28:12.505Z,99980.06
2023-05-16T09:30:59.325Z,99969.94
2023-05-16T09:33:43.869Z,99936.56
2023-05-16T09:36:27.843Z,99968.75
2023-05-16T09:39:12.427Z,99975.13
2023-05-16T09:41:59.771Z,99967.94
2023-05-16T09:44:47.410Z,99970.66
2023-05-16T09:47:31.380Z,99965.28
2023-05-16T09:50:17.330Z,99970.09
2023-05-16T09:53:01.680Z,99973.13
2023-05-16T09:55:45.755Z,99978.00
2023-05-16T09:58:33.522Z,99963.59
2023-05-16T10:01:20.398Z,99981.00
2023-05-16T10:04:04.672Z,99973.03
2023-05-16T10:06:52.478Z,99972.03
2023-05-16T10:09:36.874Z,99972.28
2023-05-16T10:12:22.643Z,99974.44
2023-05-16T10:15:09.832Z,99957.19
2023-05-16T10:17:57.794Z,99954.88
2023-05-16T10:20:43.630Z,99949.53
2023-05-16T10:23:27.890Z,99951.56
2023-05-16T10:26:14.742Z,99946.66
2023-05-16T10:28:58.974Z,99931.34
2023-05-16T10:31:46.030Z,99937.69
2023-05-16T10:34:30.508Z,99917.22
2023-05-16T10:37:14.526Z,99935.84
2023-05-16T10:39:59.119Z,99934.03
2023-05-16T10:42:46.804Z,99920.00
2023-05-16T10:45:31.420Z,99919.63
2023-05-16T10:48:17.147Z,99917.19
2023-05-16T10:51:02.815Z,99889.72
2023-05-16T10:53:46.796Z,99911.25
2023-05-16T10:56:31.025Z,99908.91
2023-05-16T10:59:26.235Z,99902.66
2023-05-16T11:02:24.937Z,99896.13
2023-05-16T11:05:15.251Z,99894.13
2023-05-16T11:08:06.058Z,99891.47
2023-05-16T11:10:49.850Z,99889.31
2023-05-16T11:13:34.512Z,99885.41
2023-05-16T11:16:31.576Z,99884.00
2023-05-16T11:19:15.601Z,99874.19
2023-05-16T11:22:25.942Z,99877.66
2023-05-16T11:25:11.315Z,99880.28
2023-05-16T11:27:56.113Z,99886.06
2023-05-16T11:30:46.934Z,99864.50
2023-05-16T11:33:35.683Z,99876.06
2023-05-16T11:36:19.651Z,99884.03
2023-05-16T11:39:10.518Z,99851.13
2023-05-16T11:41:55.368Z,99859.50
2023-05-16T11:44:39.346Z,99834.59
2023-05-16T11:47:23.275Z,99843.53
2023-05-16T11:50:10.114Z,99855.63
2023-05-16T11:52:57.620Z,99857.69
2023-05-16T11:55:43.618Z,99850.78
2023-05-16T11:58:28.977Z,99838.59
2023-05-16T12:01:13.042Z,99819.81
2023-05-16T12:03:58.258Z,99846.56
2023-05-16T12:06:44.599Z,99845.78
2023-05-16T12:09:28.756Z,99842.69
2023-05-16T12:12:14.197Z,99833.78
2023-05-16T12:15:00.521Z,99836.56
2023-05-16T12:17:44.977Z,99834.38
2023-05-16T12:20:29.055Z,99835.09
2023-05-16T12:23:13.705Z,99824.34
2023-05-16T12:25:58.571Z,99798.31
2023-05-16T12:28:44.860Z,99807.91
2023-05-16T12:31:32.190Z,99812.59
2023-05-16T12:34:20.861Z,99813.72
2023-05-16T12:37:04.980Z,99798.94
2023-05-16T12:39:51.814Z,99780.63
2023-05-16T12:42:35.919Z,99793.47
2023-05-16T12:45:21.280Z,99791.19
2023-05-16T12:48:13.579Z,99789.28
2023-05-16T12:50:57.619Z,99786.31
2023-05-16T12:53:54.435Z,99797.22
2023-05-16T12:56:48.627Z,99790.78
2023-05-16T12:59:32.721Z,99797.28
2023-05-16T13:02:19.064Z,99789.78
2023-05-16T13:05:02.886Z,99813.69
2023-05-16T13:07:47.379Z,99801.81
2023-05-16T13:10:31.299Z,99798.72
2023-05-16T13:13:25.038Z,99801.00
2023-05-16T13:16:19.346Z,99793.84
2023-05-16T13:19:05.482Z,99791.22
2023-05-16T13:21:49.447Z,99787.00
2023-05-16T13:24:33.636Z,99784.28
2023-05-16T13:27:18.379Z,99789.28
2023-05-16T13:30:02.444Z,99790.91
2023-05-16T13:32:54.060Z,99790.28
2023-05-16T13:35:39.490Z,99797.50
2023-05-16T13:38:23.766Z,99795.66
2023-05-16T13:41:07.752Z,99791.00
2023-05-16T13:43:51.628Z,99805.63
2023-05-16T13:46:36.094Z,99813.81
2023-05-16T13:49:20.054Z,99819.56
2023-05-16T13:52:05.650Z,99819.16
2023-05-16T13:54:49.570Z,99826.41
2023-05-16T13:57:34.239Z,99815.44
2023-05-16T14:00:35.842Z,99827.25
2023-05-16T14:03:24.074Z,99812.63
2023-05-16T14:06:09.080Z,99819.47
2023-05-16T14:08:54.401Z,99819.09
2023-05-16T14:11:38.364Z,99822.09
2023-05-16T14:14:22.444Z,99831.63
2023-05-16T14:17:07.623Z,99804.00
2023-05-16T14:19:51.495Z,99817.84
2023-05-16T14:22:35.422Z,99823.97
2023-05-16T14:25:20.884Z,99819.00
2023-05-16T14:28:04.954Z,99824.78
2023-05-16T14:30:49.175Z,99818.31
2023-05-16T14:33:33.544Z,99829.34
2023-05-16T14:36:17.459Z,99810.59
2023-05-16T14:39:01.570Z,99822.94
2023-05-16T14:41:47.260Z,99823.66
2023-05-16T14:44:31.613Z,99728.38
2023-05-16T14:47:15.624Z,99820.69
2023-05-16T14:50:00.766Z,99830.91
2023-05-16T14:52:45.024Z,99835.50
2023-05-16T14:55:29.192Z,99808.44
2023-05-16T14:58:15.042Z,99840.56
2023-05-16T15:00:58.959Z,99842.28
2023-05-16T15:03:54.643Z,99835.38
2023-05-16T15:06:40.356Z,99847.59
2023-05-16T15:09:24.334Z,99848.88
2023-05-16T15:12:09.006Z,99852.06
2023-05-16T15:14:54.282Z,99842.78
2023-05-16T15:17:38.456Z,99854.09
2023-05-16T15:20:22.840Z,99827.66
2023-05-16T15:23:07.347Z,99853.84
2023-05-16T15:25:52.466Z,99812.75
2023-05-16T15:28:36.819Z,99819.94
2023-05-16T15:31:22.573Z,99855.28
2023-05-16T15:34:08.685Z,99838.44
2023-05-16T15:36:52.848Z,99856.25
2023-05-16T15:39:37.369Z,99857.97
2023-05-16T15:42:21.667Z,99813.19
2023-05-16T15:45:06.574Z,99855.25
2023-05-16T15:47:52.240Z,99841.47
2023-05-16T15:50:36.497Z,99803.94
2023-05-16T15:53:20.526Z,99814.88
2023-05-16T15:56:04.566Z,99837.09
2023-05-16T15:58:48.720Z,99831.34
2023-05-16T16:01:32.796Z,99830.81
2023-05-16T16:04:21.665Z,99826.63
2023-05-16T16:07:07.426Z,99806.63
2023-05-16T16:09:51.542Z,99838.09
2023-05-16T16:12:37.197Z,99835.06
2023-05-16T16:15:21.239Z,99810.34
2023-05-16T16:18:06.631Z,99826.81
2023-05-16T16:20:53.153Z,99797.41
2023-05-16T16:23:37.380Z,99795.44
2023-05-16T16:26:21.508Z,99798.56
2023-05-16T16:29:06.633Z,99840.94
2023-05-16T16:31:50.874Z,99793.28
2023-05-16T16:34:35.118Z,99792.56
2023-05-16T16:37:20.763Z,99805.22
2023-05-16T16:40:05.460Z,99783.47
2023-05-16T16:42:49.553Z,99789.63
2023-05-16T16:45:33.964Z,99813.81
2023-05-16T16:48:17.952Z,99813.69
2023-05-16T16:51:02.148Z,99807.44
2023-05-16T16:53:47.743Z,99807.09
2023-05-16T16:56:31.680Z,99768.94
2023-05-16T16:59:15.626Z,99655.03
2023-05-16T17:01:59.683Z,99792.25
2023-05-16T17:04:43.593Z,99790.22
2023-05-16T17:07:27.859Z,99791.13
2023-05-16T17:10:13.681Z,99761.88
2023-05-16T17:13:02.985Z,99791.94
2023-05-16T17:15:47.293Z,99782.31
2023-05-16T17:18:34.471Z,99795.97
2023-05-16T17:21:18.990Z,99798.16
2023-05-16T17:24:03.628Z,99807.91
2023-05-16T17:26:48.980Z,99812.78
2023-05-16T17:29:33.046Z,99810.72
2023-05-16T17:32:17.484Z,99814.97
2023-05-16T17:35:04.268Z,99811.63
2023-05-16T17:37:52.096Z,99810.75
2023-05-16T17:40:35.970Z,99803.47
2023-05-16T17:43:21.207Z,99804.41
2023-05-16T17:46:06.463Z,99818.63
2023-05-16T17:48:50.436Z,99818.28
2023-05-16T17:51:47.557Z,99818.56
2023-05-16T17:54:32.291Z,99814.09
2023-05-16T17:57:16.369Z,99816.13
2023-05-16T18:00:01.769Z,99829.31
2023-05-16T18:02:52.426Z,99836.25
2023-05-16T18:05:36.589Z,99834.66
2023-05-16T18:08:20.707Z,99836.09
2023-05-16T18:11:04.697Z,99842.56
2023-05-16T18:13:48.635Z,99835.97
2023-05-16T18:16:34.264Z,99838.56
2023-05-16T18:19:18.375Z,99838.31
2023-05-16T18:22:07.075Z,99835.50
2023-05-16T18:24:51.280Z,99847.31
2023-05-16T18:27:35.534Z,99846.19
2023-05-16T18:30:19.693Z,99848.09
2023-05-16T18:33:06.609Z,99845.00
2023-05-16T18:35:50.992Z,99853.41
2023-05-16T18:38:34.977Z,99851.22
2023-05-16T18:41:19.017Z,99850.69
2023-05-16T18:44:03.206Z,99846.63
2023-05-16T18:46:48.224Z,99850.25
2023-05-16T18:49:33.918Z,99850.88
2023-05-16T18:52:18.340Z,99837.22
2023-05-16T18:55:02.737Z,99825.06
2023-05-16T18:57:48.032Z,99880.84
2023-05-16T19:00:37.022Z,99832.16
2023-05-16T19:03:21.522Z,99874.81
2023-05-16T19:06:07.493Z,99889.38
2023-05-16T19:08:51.786Z,99893.31
2023-05-16T19:11:36.245Z,99888.00
2023-05-16T19:14:20.700Z,99884.50
2023-05-16T19:17:05.552Z,99860.47
2023-05-16T19:19:50.077Z,99894.44
2023-05-16T19:22:35.902Z,99897.81
2023-05-16T19:25:20.291Z,99875.03
2023-05-16T19:28:04.436Z,99772.84
2023-05-16T19:30:48.896Z,99891.91
2023-05-16T19:33:33.483Z,99890.34
2023-05-16T19:36:17.973Z,99888.22
2023-05-16T19:39:06.253Z,99883.50
2023-05-16T19:41:52.085Z,99882.66
2023-05-16T19:44:36.909Z,99874.00
2023-05-16T19:47:21.866Z,99883.28
2023-05-16T19:50:07.002Z,99877.78
2023-05-16T19:52:54.543Z,99877.72
2023-05-16T19:55:40.391Z,99873.75
2023-05-16T19:58:24.709Z,99872.00
2023-05-16T20:01:09.201Z,99872.81
2023-05-16T20:03:53.568Z,99880.59
2023-05-16T20:06:37.553Z,99868.69
2023-05-16T20:09:21.715Z,99858.78
2023-05-16T20:12:08.459Z,99867.09
2023-05-16T20:14:53.025Z,99865.72
2023-05-16T20:17:37.130Z,99861.97
2023-05-16T20:20:21.335Z,99861.91
2023-05-16T20:23:05.399Z,99857.16
2023-05-16T20:25:49.643Z,99850.13
2023-05-16T20:28:34.973Z,99859.03
2023-05-16T20:31:18.965Z,99856.16
2023-05-16T20:34:02.975Z,99857.50
2023-05-16T20:36:46.976Z,99872.31
2023-05-16T20:39:31.805Z,99878.56
2023-05-16T20:42:15.842Z,99870.63
2023-05-16T20:45:01.246Z,99877.13
2023-05-16T20:47:51.243Z,99815.13
2023-05-16T20:50:36.444Z,99864.63
2023-05-16T20:53:20.655Z,99867.13
2023-05-16T20:56:04.637Z,99871.53
2023-05-16T20:58:48.661Z,99865.69
2023-05-16T21:01:33.965Z,99872.84
2023-05-16T21:04:17.918Z,99866.13
2023-05-16T21:07:01.942Z,99864.50
2023-05-16T21:09:45.832Z,99864.41
2023-05-16T21:12:29.679Z,99853.91
2023-05-16T21:15:13.606Z,99855.66
2023-05-16T21:17:59.238Z,99847.91
2023-05-16T21:20:43.316Z,99843.13
2023-05-16T21:23:27.138Z,99817.28
2023-05-16T21:26:11.251Z,99836.31
2023-05-16T21:28:56.067Z,99838.75
2023-05-16T21:31:40.404Z,99834.38
2023-05-16T21:34:25.862Z,99837.38
2023-05-16T21:37:11.815Z,99830.25
2023-05-16T21:39:55.864Z,99822.97
2023-05-16T21:42:39.670Z,99812.03
2023-05-16T21:45:23.688Z,99805.22
2023-05-16T21:48:07.918Z,99819.41
2023-05-16T21:50:53.352Z,99825.16
2023-05-16T21:53:38.453Z,99823.59
2023-05-16T21:56:22.942Z,99821.41
2023-05-16T21:59:06.888Z,99834.34
2023-05-16T22:01:52.982Z,99819.78
2023-05-16T22:04:36.971Z,99810.22
2023-05-16T22:07:24.129Z,99789.31
2023-05-16T22:10:10.901Z,99804.63
2023-05-16T22:12:54.875Z,99805.13
2023-05-16T22:15:40.716Z,99787.50
2023-05-16T22:18:24.830Z,99799.28
2023-05-16T22:21:08.817Z,99790.63
2023-05-16T22:23:54.102Z,99798.66
2023-05-16T22:26:37.931Z,99790.69
2023-05-16T22:29:21.962Z,99779.47
2023-05-16T22:32:07.914Z,99760.22
2023-05-16T22:34:52.834Z,99771.38
2023-05-16T22:37:37.772Z,99768.44
2023-05-16T22:40:23.129Z,99762.91
2023-05-16T22:43:07.038Z,99771.94
2023-05-16T22:45:51.715Z,99772.09
2023-05-16T22:48:35.803Z,99770.78
2023-05-16T22:51:19.621Z,99758.16
2023-05-16T22:54:03.712Z,99772.28
2023-05-16T22:56:48.943Z,99779.00
2023-05-16T22:59:32.964Z,99777.88
2023-05-16T23:02:17.015Z,99784.19
2023-05-16T23:05:00.922Z,99792.66
2023-05-16T23:07:48.040Z,99803.41
2023-05-16T23:10:32.005Z,99808.06
2023-05-16T23:13:17.349Z,99818.28
2023-05-16T23:16:01.195Z,99800.25
2023-05-16T23:18:45.112Z,99831.91
2023-05-16T23:21:29.071Z,99835.00
2023-05-16T23:24:12.962Z,99834.69
2023-05-16T23:26:56.870Z,99846.59
2023-05-16T23:29:42.135Z,99855.50
2023-05-16T23:32:26.219Z,99870.25
2023-05-16T23:35:10.667Z,99883.31
2023-05-16T23:37:54.553Z,99879.75
2023-05-16T23:40:38.524Z,99889.81
2023-05-16T23:43:22.371Z,99880.00
2023-05-16T23:46:07.834Z,99883.66
2023-05-16T23:48:51.831Z,99884.78
2023-05-16T23:51:45.322Z,99866.19
2023-05-16T23:54:39.582Z,99872.53
2023-05-16T23:57:23.503Z,99867.06
